Aérodrome :
LOGIN :

S'inscrire | Disclaimer

   EN    FR    IT 

 










Légende :    VFR   VFR Marginal   IFR   IFR Intensif   IFR Très Intensif
Visi : 
Plafond : 
>= 8 km
>= 3000ft
5 à 8 km
1000 à 3000 ft
1500m à 5 km
500 à 1000 ft
800 à 1500m
200 à 500 ft
< 800m
< 200 ft
Symboles :   Orages  Brouillard  Fortes neiges  Fortes précipitations  Vent > 20 kt
SIGMETs :   Divers  Orages  Givrage  Turbulence  Onde Orograph.  Cendres Volcan.






- Altitude de l'aérodrome : 2945 ft
- Code IATA : RGS


LEBG - Burgos

DERNIER METAR :
  • 120030Z AUTO 06005KT CAVOK 02/01 Q1018

METARs EXPIRÉS :
  • 120000Z AUTO VRB01KT CAVOK 02/01 Q1018
  • 112330Z AUTO 35004KT CAVOK 02/01 Q1019
  • 112300Z AUTO 02005KT CAVOK 02/01 Q1019
  • 112230Z AUTO 11002KT 9999 NCD 01/00 Q1019
  • 112200Z AUTO 04003KT 330V060 9999 NCD 01/01 Q1019
  • 112130Z AUTO 02005KT 9999 FEW018 02/01 Q1019

TAF TAF LEBG
Valide du 11 à 18h jusqu'au 12 à 03h UTC


111700Z 1118/1203 01012KT 9999 BKN014
PROB30
TEMPO 1118/1121 5000 DZ BR BKN010
BECMG 1123/1201 OVC005
TEMPO 1200/1202 OVC012
BECMG 1200/1202 FEW004



MET'MAP, la Météo Aéronautique d'un coup d'oeil ! - Copyright ORBIFLY Décembre 2007 - Disclaimer

ORBIFLY MET'MAP TEAM :

Programmation & Développement : Alexandra Zaïnal
Conception & Développement : Baudouin d'Aumeries
Co-Programmation & Développement : Marc-Olivier Méhu
Soutien technique & logistique : Manuel Goepfert

Contact : metmap@orbifly.com




SOURCES & CREDITS :

   NOAA